sensor_id;sensor_type;location;lat;lon;timestamp;P1;durP1;ratioP1;P2;durP2;ratioP2
51664;SDS011;37751;52.408;12.536;2023-07-20T00:00:46;6.38;;;4.80;;
51664;SDS011;37751;52.408;12.536;2023-07-20T00:03:14;6.22;;;4.95;;
51664;SDS011;37751;52.408;12.536;2023-07-20T00:05:46;8.52;;;5.20;;
51664;SDS011;37751;52.408;12.536;2023-07-20T00:08:14;7.30;;;4.90;;
51664;SDS011;37751;52.408;12.536;2023-07-20T00:10:43;6.82;;;5.10;;
51664;SDS011;37751;52.408;12.536;2023-07-20T00:13:11;5.80;;;4.45;;
51664;SDS011;37751;52.408;12.536;2023-07-20T00:15:39;5.68;;;4.85;;
51664;SDS011;37751;52.408;12.536;2023-07-20T00:18:07;6.13;;;5.18;;
51664;SDS011;37751;52.408;12.536;2023-07-20T00:20:35;7.18;;;5.32;;
51664;SDS011;37751;52.408;12.536;2023-07-20T00:23:03;5.78;;;5.10;;
51664;SDS011;37751;52.408;12.536;2023-07-20T00:25:31;7.88;;;5.00;;
51664;SDS011;37751;52.408;12.536;2023-07-20T00:28:01;8.52;;;4.97;;
51664;SDS011;37751;52.408;12.536;2023-07-20T00:30:29;5.68;;;5.18;;
51664;SDS011;37751;52.408;12.536;2023-07-20T00:32:57;5.35;;;4.85;;
51664;SDS011;37751;52.408;12.536;2023-07-20T00:35:25;7.43;;;5.20;;
51664;SDS011;37751;52.408;12.536;2023-07-20T00:37:52;7.78;;;5.07;;
51664;SDS011;37751;52.408;12.536;2023-07-20T00:40:21;7.47;;;5.05;;
51664;SDS011;37751;52.408;12.536;2023-07-20T00:42:49;7.90;;;5.00;;
51664;SDS011;37751;52.408;12.536;2023-07-20T00:45:23;11.55;;;5.70;;
51664;SDS011;37751;52.408;12.536;2023-07-20T00:47:53;9.13;;;5.47;;
51664;SDS011;37751;52.408;12.536;2023-07-20T00:50:21;11.00;;;5.63;;
51664;SDS011;37751;52.408;12.536;2023-07-20T00:52:49;10.70;;;5.20;;
51664;SDS011;37751;52.408;12.536;2023-07-20T00:55:18;12.25;;;5.80;;
51664;SDS011;37751;52.408;12.536;2023-07-20T00:57:47;8.93;;;5.40;;
51664;SDS011;37751;52.408;12.536;2023-07-20T01:00:15;9.35;;;5.70;;
51664;SDS011;37751;52.408;12.536;2023-07-20T01:02:43;9.10;;;6.05;;
51664;SDS011;37751;52.408;12.536;2023-07-20T01:05:12;9.85;;;6.22;;
51664;SDS011;37751;52.408;12.536;2023-07-20T01:07:55;9.18;;;6.72;;
51664;SDS011;37751;52.408;12.536;2023-07-20T01:13:13;8.57;;;7.05;;
51664;SDS011;37751;52.408;12.536;2023-07-20T01:15:41;10.50;;;7.88;;
51664;SDS011;37751;52.408;12.536;2023-07-20T01:18:09;14.45;;;9.73;;
51664;SDS011;37751;52.408;12.536;2023-07-20T01:20:37;13.23;;;11.80;;
51664;SDS011;37751;52.408;12.536;2023-07-20T01:23:22;17.27;;;11.88;;
51664;SDS011;37751;52.408;12.536;2023-07-20T01:31:46;16.85;;;13.57;;
51664;SDS011;37751;52.408;12.536;2023-07-20T01:34:17;20.00;;;13.60;;
51664;SDS011;37751;52.408;12.536;2023-07-20T01:36:47;16.63;;;13.80;;
51664;SDS011;37751;52.408;12.536;2023-07-20T01:39:18;16.20;;;13.15;;
51664;SDS011;37751;52.408;12.536;2023-07-20T01:41:47;17.55;;;13.43;;
51664;SDS011;37751;52.408;12.536;2023-07-20T01:44:15;16.08;;;14.20;;
51664;SDS011;37751;52.408;12.536;2023-07-20T01:46:45;17.88;;;13.68;;
51664;SDS011;37751;52.408;12.536;2023-07-20T01:49:13;14.73;;;13.15;;
51664;SDS011;37751;52.408;12.536;2023-07-20T01:51:41;19.85;;;13.10;;
51664;SDS011;37751;52.408;12.536;2023-07-20T01:54:09;16.95;;;12.77;;
51664;SDS011;37751;52.408;12.536;2023-07-20T01:56:37;19.08;;;12.82;;
51664;SDS011;37751;52.408;12.536;2023-07-20T01:59:05;16.10;;;12.38;;
51664;SDS011;37751;52.408;12.536;2023-07-20T02:01:33;14.13;;;11.70;;
51664;SDS011;37751;52.408;12.536;2023-07-20T02:04:01;13.07;;;11.35;;
51664;SDS011;37751;52.408;12.536;2023-07-20T02:06:29;14.70;;;11.23;;
51664;SDS011;37751;52.408;12.536;2023-07-20T02:08:57;19.52;;;12.85;;
51664;SDS011;37751;52.408;12.536;2023-07-20T02:11:26;13.48;;;11.95;;
51664;SDS011;37751;52.408;12.536;2023-07-20T02:13:54;14.80;;;11.38;;
51664;SDS011;37751;52.408;12.536;2023-07-20T02:16:22;14.88;;;11.25;;
51664;SDS011;37751;52.408;12.536;2023-07-20T02:18:51;15.02;;;10.93;;
51664;SDS011;37751;52.408;12.536;2023-07-20T02:21:19;12.57;;;10.68;;
51664;SDS011;37751;52.408;12.536;2023-07-20T02:23:47;11.40;;;10.40;;
51664;SDS011;37751;52.408;12.536;2023-07-20T02:26:15;17.52;;;10.95;;
51664;SDS011;37751;52.408;12.536;2023-07-20T02:28:43;13.23;;;11.82;;
51664;SDS011;37751;52.408;12.536;2023-07-20T02:31:12;11.35;;;10.25;;
51664;SDS011;37751;52.408;12.536;2023-07-20T02:33:40;14.20;;;10.25;;
51664;SDS011;37751;52.408;12.536;2023-07-20T02:36:08;13.35;;;11.20;;
51664;SDS011;37751;52.408;12.536;2023-07-20T02:38:36;12.48;;;10.35;;
51664;SDS011;37751;52.408;12.536;2023-07-20T02:41:04;17.67;;;10.70;;
51664;SDS011;37751;52.408;12.536;2023-07-20T02:43:32;14.80;;;10.25;;
51664;SDS011;37751;52.408;12.536;2023-07-20T02:45:59;13.35;;;12.00;;
51664;SDS011;37751;52.408;12.536;2023-07-20T02:48:27;13.65;;;11.60;;
51664;SDS011;37751;52.408;12.536;2023-07-20T02:50:55;12.43;;;11.23;;
51664;SDS011;37751;52.408;12.536;2023-07-20T02:53:23;12.52;;;11.00;;
51664;SDS011;37751;52.408;12.536;2023-07-20T02:55:51;15.45;;;11.43;;
51664;SDS011;37751;52.408;12.536;2023-07-20T02:58:19;13.07;;;11.63;;
51664;SDS011;37751;52.408;12.536;2023-07-20T03:00:47;17.50;;;13.40;;
51664;SDS011;37751;52.408;12.536;2023-07-20T03:03:14;15.30;;;12.57;;
51664;SDS011;37751;52.408;12.536;2023-07-20T03:05:43;16.80;;;11.68;;
51664;SDS011;37751;52.408;12.536;2023-07-20T03:08:10;14.10;;;12.40;;
51664;SDS011;37751;52.408;12.536;2023-07-20T03:10:39;14.48;;;12.10;;
51664;SDS011;37751;52.408;12.536;2023-07-20T03:13:10;17.83;;;12.90;;
51664;SDS011;37751;52.408;12.536;2023-07-20T03:15:38;15.23;;;13.05;;
51664;SDS011;37751;52.408;12.536;2023-07-20T03:18:06;20.65;;;13.18;;
51664;SDS011;37751;52.408;12.536;2023-07-20T03:20:35;16.33;;;12.73;;
51664;SDS011;37751;52.408;12.536;2023-07-20T03:23:03;19.02;;;12.75;;
51664;SDS011;37751;52.408;12.536;2023-07-20T03:25:31;15.07;;;12.80;;
51664;SDS011;37751;52.408;12.536;2023-07-20T03:28:00;13.70;;;11.95;;
51664;SDS011;37751;52.408;12.536;2023-07-20T03:30:28;20.23;;;13.00;;
51664;SDS011;37751;52.408;12.536;2023-07-20T03:32:56;15.07;;;12.63;;
51664;SDS011;37751;52.408;12.536;2023-07-20T03:35:24;19.85;;;12.90;;
51664;SDS011;37751;52.408;12.536;2023-07-20T03:37:52;16.65;;;12.18;;
51664;SDS011;37751;52.408;12.536;2023-07-20T03:40:20;18.15;;;12.05;;
51664;SDS011;37751;52.408;12.536;2023-07-20T03:42:48;19.38;;;11.55;;
51664;SDS011;37751;52.408;12.536;2023-07-20T03:45:15;18.33;;;12.05;;
51664;SDS011;37751;52.408;12.536;2023-07-20T03:47:43;18.00;;;11.98;;
51664;SDS011;37751;52.408;12.536;2023-07-20T03:50:12;17.70;;;11.93;;
51664;SDS011;37751;52.408;12.536;2023-07-20T03:52:40;19.00;;;12.13;;
51664;SDS011;37751;52.408;12.536;2023-07-20T03:55:08;14.18;;;11.48;;
51664;SDS011;37751;52.408;12.536;2023-07-20T03:57:36;12.30;;;10.80;;
51664;SDS011;37751;52.408;12.536;2023-07-20T04:00:05;14.43;;;11.65;;
51664;SDS011;37751;52.408;12.536;2023-07-20T04:02:38;14.90;;;11.43;;
51664;SDS011;37751;52.408;12.536;2023-07-20T04:05:06;13.32;;;11.88;;
51664;SDS011;37751;52.408;12.536;2023-07-20T04:07:34;17.02;;;11.30;;
51664;SDS011;37751;52.408;12.536;2023-07-20T04:10:02;15.77;;;10.52;;
51664;SDS011;37751;52.408;12.536;2023-07-20T04:12:30;12.27;;;10.60;;
51664;SDS011;37751;52.408;12.536;2023-07-20T04:14:58;14.23;;;9.25;;
51664;SDS011;37751;52.408;12.536;2023-07-20T04:17:27;10.38;;;8.98;;
51664;SDS011;37751;52.408;12.536;2023-07-20T04:19:55;10.57;;;9.07;;
51664;SDS011;37751;52.408;12.536;2023-07-20T04:22:25;9.88;;;8.68;;
51664;SDS011;37751;52.408;12.536;2023-07-20T04:24:54;10.82;;;8.05;;
51664;SDS011;37751;52.408;12.536;2023-07-20T04:27:22;11.85;;;8.27;;
51664;SDS011;37751;52.408;12.536;2023-07-20T04:29:50;12.77;;;7.72;;
51664;SDS011;37751;52.408;12.536;2023-07-20T04:32:19;10.23;;;7.63;;
51664;SDS011;37751;52.408;12.536;2023-07-20T04:34:47;10.07;;;7.10;;
51664;SDS011;37751;52.408;12.536;2023-07-20T04:37:15;10.65;;;7.45;;
51664;SDS011;37751;52.408;12.536;2023-07-20T04:39:42;12.45;;;7.05;;
51664;SDS011;37751;52.408;12.536;2023-07-20T04:42:11;11.00;;;7.90;;
51664;SDS011;37751;52.408;12.536;2023-07-20T04:44:40;7.97;;;6.75;;
51664;SDS011;37751;52.408;12.536;2023-07-20T04:47:09;11.60;;;6.85;;
51664;SDS011;37751;52.408;12.536;2023-07-20T04:49:40;11.77;;;7.32;;
51664;SDS011;37751;52.408;12.536;2023-07-20T04:52:14;10.65;;;7.75;;
51664;SDS011;37751;52.408;12.536;2023-07-20T04:54:42;9.15;;;7.05;;
51664;SDS011;37751;52.408;12.536;2023-07-20T04:57:17;12.68;;;7.07;;
51664;SDS011;37751;52.408;12.536;2023-07-20T04:59:48;10.32;;;7.50;;
51664;SDS011;37751;52.408;12.536;2023-07-20T05:02:19;14.63;;;7.43;;
51664;SDS011;37751;52.408;12.536;2023-07-20T05:04:49;14.48;;;7.63;;
51664;SDS011;37751;52.408;12.536;2023-07-20T05:07:19;11.13;;;8.10;;
51664;SDS011;37751;52.408;12.536;2023-07-20T05:09:47;9.10;;;7.93;;
51664;SDS011;37751;52.408;12.536;2023-07-20T05:12:15;14.48;;;7.00;;
51664;SDS011;37751;52.408;12.536;2023-07-20T05:14:46;11.73;;;7.18;;
51664;SDS011;37751;52.408;12.536;2023-07-20T05:17:19;6.68;;;5.80;;
51664;SDS011;37751;52.408;12.536;2023-07-20T05:19:49;11.27;;;7.53;;
51664;SDS011;37751;52.408;12.536;2023-07-20T05:22:17;11.52;;;6.50;;
51664;SDS011;37751;52.408;12.536;2023-07-20T05:24:48;7.57;;;6.20;;
51664;SDS011;37751;52.408;12.536;2023-07-20T05:27:20;8.25;;;6.13;;
51664;SDS011;37751;52.408;12.536;2023-07-20T05:29:51;9.10;;;6.15;;
51664;SDS011;37751;52.408;12.536;2023-07-20T05:32:25;7.40;;;5.28;;
51664;SDS011;37751;52.408;12.536;2023-07-20T05:34:56;8.02;;;5.18;;
51664;SDS011;37751;52.408;12.536;2023-07-20T05:37:26;7.95;;;5.80;;
51664;SDS011;37751;52.408;12.536;2023-07-20T05:39:54;7.30;;;5.40;;
51664;SDS011;37751;52.408;12.536;2023-07-20T05:42:22;5.35;;;4.85;;
51664;SDS011;37751;52.408;12.536;2023-07-20T05:44:53;7.88;;;5.07;;
51664;SDS011;37751;52.408;12.536;2023-07-20T05:47:22;10.45;;;5.30;;
51664;SDS011;37751;52.408;12.536;2023-07-20T05:49:50;6.38;;;4.40;;
51664;SDS011;37751;52.408;12.536;2023-07-20T05:52:18;5.38;;;4.10;;
51664;SDS011;37751;52.408;12.536;2023-07-20T05:54:46;7.07;;;4.70;;
51664;SDS011;37751;52.408;12.536;2023-07-20T05:57:13;6.90;;;4.10;;
51664;SDS011;37751;52.408;12.536;2023-07-20T05:59:41;8.10;;;4.38;;
51664;SDS011;37751;52.408;12.536;2023-07-20T06:02:11;7.60;;;3.85;;
51664;SDS011;37751;52.408;12.536;2023-07-20T06:04:39;12.13;;;3.83;;
51664;SDS011;37751;52.408;12.536;2023-07-20T06:07:07;10.75;;;4.60;;
51664;SDS011;37751;52.408;12.536;2023-07-20T06:09:35;6.25;;;3.78;;
51664;SDS011;37751;52.408;12.536;2023-07-20T06:12:04;4.80;;;4.32;;
51664;SDS011;37751;52.408;12.536;2023-07-20T06:14:35;9.57;;;4.32;;
51664;SDS011;37751;52.408;12.536;2023-07-20T06:17:04;13.57;;;5.25;;
51664;SDS011;37751;52.408;12.536;2023-07-20T06:19:33;5.13;;;3.92;;
51664;SDS011;37751;52.408;12.536;2023-07-20T06:22:01;4.75;;;4.05;;
51664;SDS011;37751;52.408;12.536;2023-07-20T06:24:29;5.32;;;3.65;;
51664;SDS011;37751;52.408;12.536;2023-07-20T06:26:58;6.00;;;2.88;;
51664;SDS011;37751;52.408;12.536;2023-07-20T06:29:26;7.15;;;3.95;;
51664;SDS011;37751;52.408;12.536;2023-07-20T06:31:53;4.10;;;3.67;;
51664;SDS011;37751;52.408;12.536;2023-07-20T06:34:24;5.82;;;3.08;;
51664;SDS011;37751;52.408;12.536;2023-07-20T06:36:55;4.05;;;3.53;;
51664;SDS011;37751;52.408;12.536;2023-07-20T06:39:26;8.55;;;3.50;;
51664;SDS011;37751;52.408;12.536;2023-07-20T06:42:02;4.38;;;3.63;;
51664;SDS011;37751;52.408;12.536;2023-07-20T06:44:31;6.40;;;3.72;;
51664;SDS011;37751;52.408;12.536;2023-07-20T06:47:01;4.20;;;3.65;;
51664;SDS011;37751;52.408;12.536;2023-07-20T06:49:29;5.25;;;3.63;;
51664;SDS011;37751;52.408;12.536;2023-07-20T06:51:57;6.30;;;3.22;;
51664;SDS011;37751;52.408;12.536;2023-07-20T06:54:25;4.22;;;2.67;;
51664;SDS011;37751;52.408;12.536;2023-07-20T06:56:53;6.38;;;2.88;;
51664;SDS011;37751;52.408;12.536;2023-07-20T06:59:24;7.78;;;3.15;;
51664;SDS011;37751;52.408;12.536;2023-07-20T07:01:55;5.72;;;2.55;;
51664;SDS011;37751;52.408;12.536;2023-07-20T07:04:32;2.55;;;2.10;;
51664;SDS011;37751;52.408;12.536;2023-07-20T07:07:01;5.07;;;2.10;;
51664;SDS011;37751;52.408;12.536;2023-07-20T07:09:30;3.30;;;2.53;;
51664;SDS011;37751;52.408;12.536;2023-07-20T07:11:57;6.07;;;2.70;;
51664;SDS011;37751;52.408;12.536;2023-07-20T07:14:26;2.80;;;2.20;;
51664;SDS011;37751;52.408;12.536;2023-07-20T07:16:54;3.22;;;2.53;;
51664;SDS011;37751;52.408;12.536;2023-07-20T07:19:24;4.45;;;2.28;;
51664;SDS011;37751;52.408;12.536;2023-07-20T07:21:52;5.63;;;2.50;;
51664;SDS011;37751;52.408;12.536;2023-07-20T07:24:26;19.52;;;3.72;;
51664;SDS011;37751;52.408;12.536;2023-07-20T07:26:56;2.60;;;1.92;;
51664;SDS011;37751;52.408;12.536;2023-07-20T07:29:24;2.92;;;1.58;;
51664;SDS011;37751;52.408;12.536;2023-07-20T07:31:51;4.13;;;1.77;;
51664;SDS011;37751;52.408;12.536;2023-07-20T07:34:19;4.32;;;1.33;;
51664;SDS011;37751;52.408;12.536;2023-07-20T07:36:47;6.18;;;1.60;;
51664;SDS011;37751;52.408;12.536;2023-07-20T07:39:15;3.28;;;1.30;;
51664;SDS011;37751;52.408;12.536;2023-07-20T07:41:45;2.40;;;1.10;;
51664;SDS011;37751;52.408;12.536;2023-07-20T07:44:13;1.75;;;1.33;;
51664;SDS011;37751;52.408;12.536;2023-07-20T07:46:44;2.50;;;1.00;;
51664;SDS011;37751;52.408;12.536;2023-07-20T07:49:11;3.33;;;1.15;;
51664;SDS011;37751;52.408;12.536;2023-07-20T07:51:39;5.47;;;1.10;;
51664;SDS011;37751;52.408;12.536;2023-07-20T07:54:07;3.42;;;0.90;;
51664;SDS011;37751;52.408;12.536;2023-07-20T07:56:35;3.53;;;1.05;;
51664;SDS011;37751;52.408;12.536;2023-07-20T07:59:03;3.45;;;1.08;;
51664;SDS011;37751;52.408;12.536;2023-07-20T08:01:31;2.10;;;0.75;;
51664;SDS011;37751;52.408;12.536;2023-07-20T08:03:59;6.22;;;0.60;;
51664;SDS011;37751;52.408;12.536;2023-07-20T08:06:27;1.13;;;0.43;;
51664;SDS011;37751;52.408;12.536;2023-07-20T08:08:57;1.10;;;0.60;;
51664;SDS011;37751;52.408;12.536;2023-07-20T08:11:25;3.15;;;0.60;;
51664;SDS011;37751;52.408;12.536;2023-07-20T08:13:53;4.00;;;0.82;;
51664;SDS011;37751;52.408;12.536;2023-07-20T08:16:22;1.83;;;0.63;;
51664;SDS011;37751;52.408;12.536;2023-07-20T08:18:50;1.77;;;0.57;;
51664;SDS011;37751;52.408;12.536;2023-07-20T08:21:21;2.20;;;0.60;;
51664;SDS011;37751;52.408;12.536;2023-07-20T08:23:56;0.90;;;0.60;;
51664;SDS011;37751;52.408;12.536;2023-07-20T08:26:24;1.58;;;0.60;;
51664;SDS011;37751;52.408;12.536;2023-07-20T08:28:54;1.02;;;0.63;;
51664;SDS011;37751;52.408;12.536;2023-07-20T08:31:24;4.63;;;0.73;;
51664;SDS011;37751;52.408;12.536;2023-07-20T08:33:52;5.30;;;0.80;;
51664;SDS011;37751;52.408;12.536;2023-07-20T08:36:20;1.45;;;0.50;;
51664;SDS011;37751;52.408;12.536;2023-07-20T08:38:48;1.02;;;0.50;;
51664;SDS011;37751;52.408;12.536;2023-07-20T08:41:16;1.77;;;0.60;;
51664;SDS011;37751;52.408;12.536;2023-07-20T08:43:46;2.58;;;0.90;;
51664;SDS011;37751;52.408;12.536;2023-07-20T08:46:14;1.75;;;0.60;;
51664;SDS011;37751;52.408;12.536;2023-07-20T08:48:46;2.15;;;0.82;;
51664;SDS011;37751;52.408;12.536;2023-07-20T08:51:14;1.95;;;0.70;;
51664;SDS011;37751;52.408;12.536;2023-07-20T08:53:44;1.42;;;0.50;;
51664;SDS011;37751;52.408;12.536;2023-07-20T08:56:15;0.55;;;0.50;;
51664;SDS011;37751;52.408;12.536;2023-07-20T08:58:45;1.42;;;0.70;;
51664;SDS011;37751;52.408;12.536;2023-07-20T09:01:17;1.38;;;0.40;;
51664;SDS011;37751;52.408;12.536;2023-07-20T09:03:46;2.28;;;0.50;;
51664;SDS011;37751;52.408;12.536;2023-07-20T09:06:15;2.00;;;0.60;;
51664;SDS011;37751;52.408;12.536;2023-07-20T09:08:43;1.05;;;0.60;;
51664;SDS011;37751;52.408;12.536;2023-07-20T09:11:11;1.50;;;1.02;;
51664;SDS011;37751;52.408;12.536;2023-07-20T09:13:43;0.82;;;0.50;;
51664;SDS011;37751;52.408;12.536;2023-07-20T09:16:13;2.72;;;0.50;;
51664;SDS011;37751;52.408;12.536;2023-07-20T09:18:48;1.55;;;0.50;;
51664;SDS011;37751;52.408;12.536;2023-07-20T09:21:16;2.50;;;0.50;;
51664;SDS011;37751;52.408;12.536;2023-07-20T09:23:44;4.85;;;0.68;;
51664;SDS011;37751;52.408;12.536;2023-07-20T09:26:15;2.72;;;0.68;;
51664;SDS011;37751;52.408;12.536;2023-07-20T09:28:51;1.25;;;0.88;;
51664;SDS011;37751;52.408;12.536;2023-07-20T09:31:21;1.50;;;0.85;;
51664;SDS011;37751;52.408;12.536;2023-07-20T09:33:51;2.10;;;0.90;;
51664;SDS011;37751;52.408;12.536;2023-07-20T09:36:26;2.38;;;0.80;;
51664;SDS011;37751;52.408;12.536;2023-07-20T09:38:58;3.13;;;0.68;;
51664;SDS011;37751;52.408;12.536;2023-07-20T09:41:30;2.05;;;0.80;;
51664;SDS011;37751;52.408;12.536;2023-07-20T09:44:10;1.85;;;0.70;;
51664;SDS011;37751;52.408;12.536;2023-07-20T09:46:49;4.18;;;0.90;;
51664;SDS011;37751;52.408;12.536;2023-07-20T09:49:21;1.77;;;0.80;;
51664;SDS011;37751;52.408;12.536;2023-07-20T09:51:52;0.68;;;0.65;;
51664;SDS011;37751;52.408;12.536;2023-07-20T09:54:24;2.55;;;0.90;;
51664;SDS011;37751;52.408;12.536;2023-07-20T09:56:55;6.65;;;0.98;;
51664;SDS011;37751;52.408;12.536;2023-07-20T09:59:24;1.48;;;0.73;;
51664;SDS011;37751;52.408;12.536;2023-07-20T10:01:54;1.63;;;0.82;;
51664;SDS011;37751;52.408;12.536;2023-07-20T10:04:26;0.98;;;0.50;;
51664;SDS011;37751;52.408;12.536;2023-07-20T10:06:57;0.98;;;0.50;;
51664;SDS011;37751;52.408;12.536;2023-07-20T10:09:28;1.65;;;0.63;;
51664;SDS011;37751;52.408;12.536;2023-07-20T10:11:57;1.10;;;0.65;;
51664;SDS011;37751;52.408;12.536;2023-07-20T10:14:44;0.60;;;0.47;;
51664;SDS011;37751;52.408;12.536;2023-07-20T10:17:29;0.80;;;0.52;;
51664;SDS011;37751;52.408;12.536;2023-07-20T10:19:57;0.82;;;0.50;;
51664;SDS011;37751;52.408;12.536;2023-07-20T10:22:35;0.40;;;0.40;;
51664;SDS011;37751;52.408;12.536;2023-07-20T10:25:08;0.70;;;0.50;;
51664;SDS011;37751;52.408;12.536;2023-07-20T10:27:37;1.10;;;0.40;;
51664;SDS011;37751;52.408;12.536;2023-07-20T10:30:06;3.03;;;0.70;;
51664;SDS011;37751;52.408;12.536;2023-07-20T10:32:35;1.13;;;0.50;;
51664;SDS011;37751;52.408;12.536;2023-07-20T10:35:11;5.07;;;0.70;;
51664;SDS011;37751;52.408;12.536;2023-07-20T10:40:31;1.95;;;0.50;;
51664;SDS011;37751;52.408;12.536;2023-07-20T10:43:02;2.35;;;0.50;;
51664;SDS011;37751;52.408;12.536;2023-07-20T10:45:37;3.08;;;0.40;;
51664;SDS011;37751;52.408;12.536;2023-07-20T10:48:17;2.35;;;0.60;;
51664;SDS011;37751;52.408;12.536;2023-07-20T10:51:10;1.75;;;0.80;;
51664;SDS011;37751;52.408;12.536;2023-07-20T10:53:50;0.43;;;0.40;;
51664;SDS011;37751;52.408;12.536;2023-07-20T10:56:21;2.10;;;0.35;;
51664;SDS011;37751;52.408;12.536;2023-07-20T10:59:02;0.80;;;0.40;;
51664;SDS011;37751;52.408;12.536;2023-07-20T11:02:09;1.30;;;0.50;;
51664;SDS011;37751;52.408;12.536;2023-07-20T11:04:44;0.93;;;0.50;;
51664;SDS011;37751;52.408;12.536;2023-07-20T11:07:17;3.95;;;0.50;;
51664;SDS011;37751;52.408;12.536;2023-07-20T11:10:15;1.38;;;0.65;;
51664;SDS011;37751;52.408;12.536;2023-07-20T11:18:26;1.23;;;0.52;;
51664;SDS011;37751;52.408;12.536;2023-07-20T11:20:55;0.80;;;0.50;;
51664;SDS011;37751;52.408;12.536;2023-07-20T11:23:24;0.85;;;0.40;;
51664;SDS011;37751;52.408;12.536;2023-07-20T11:25:54;4.80;;;0.40;;
51664;SDS011;37751;52.408;12.536;2023-07-20T11:28:29;1.85;;;0.50;;
51664;SDS011;37751;52.408;12.536;2023-07-20T11:36:08;2.65;;;0.47;;
51664;SDS011;37751;52.408;12.536;2023-07-20T11:38:46;0.95;;;0.40;;
51664;SDS011;37751;52.408;12.536;2023-07-20T11:41:25;0.70;;;0.38;;
51664;SDS011;37751;52.408;12.536;2023-07-20T11:43:58;0.35;;;0.32;;
51664;SDS011;37751;52.408;12.536;2023-07-20T11:46:32;0.93;;;0.30;;
51664;SDS011;37751;52.408;12.536;2023-07-20T11:49:12;3.22;;;0.30;;
51664;SDS011;37751;52.408;12.536;2023-07-20T11:51:46;1.05;;;0.40;;
51664;SDS011;37751;52.408;12.536;2023-07-20T11:54:17;2.30;;;0.45;;
51664;SDS011;37751;52.408;12.536;2023-07-20T11:56:48;0.77;;;0.22;;
51664;SDS011;37751;52.408;12.536;2023-07-20T11:59:30;4.32;;;0.50;;
51664;SDS011;37751;52.408;12.536;2023-07-20T12:02:11;0.95;;;0.30;;
51664;SDS011;37751;52.408;12.536;2023-07-20T12:04:44;1.55;;;0.40;;
51664;SDS011;37751;52.408;12.536;2023-07-20T12:07:26;3.35;;;0.30;;
51664;SDS011;37751;52.408;12.536;2023-07-20T12:10:08;0.30;;;0.20;;
51664;SDS011;37751;52.408;12.536;2023-07-20T12:12:40;0.88;;;0.30;;
51664;SDS011;37751;52.408;12.536;2023-07-20T12:15:24;1.30;;;0.47;;
51664;SDS011;37751;52.408;12.536;2023-07-20T12:17:57;0.43;;;0.30;;
51664;SDS011;37751;52.408;12.536;2023-07-20T12:20:37;0.43;;;0.30;;
51664;SDS011;37751;52.408;12.536;2023-07-20T12:23:10;0.47;;;0.40;;
51664;SDS011;37751;52.408;12.536;2023-07-20T12:25:44;0.30;;;0.30;;
51664;SDS011;37751;52.408;12.536;2023-07-20T12:28:19;0.68;;;0.50;;
51664;SDS011;37751;52.408;12.536;2023-07-20T12:30:47;0.35;;;0.20;;
51664;SDS011;37751;52.408;12.536;2023-07-20T12:33:29;0.32;;;0.30;;
51664;SDS011;37751;52.408;12.536;2023-07-20T12:36:15;0.57;;;0.20;;
51664;SDS011;37751;52.408;12.536;2023-07-20T12:38:46;1.85;;;0.40;;
51664;SDS011;37751;52.408;12.536;2023-07-20T12:41:14;0.57;;;0.32;;
51664;SDS011;37751;52.408;12.536;2023-07-20T12:43:43;0.70;;;0.35;;
51664;SDS011;37751;52.408;12.536;2023-07-20T12:46:15;0.20;;;0.20;;
51664;SDS011;37751;52.408;12.536;2023-07-20T12:48:43;0.20;;;0.20;;
51664;SDS011;37751;52.408;12.536;2023-07-20T12:51:16;1.30;;;0.40;;
51664;SDS011;37751;52.408;12.536;2023-07-20T12:53:44;1.25;;;0.80;;
51664;SDS011;37751;52.408;12.536;2023-07-20T12:56:12;1.95;;;0.20;;
51664;SDS011;37751;52.408;12.536;2023-07-20T12:58:43;1.08;;;0.40;;
51664;SDS011;37751;52.408;12.536;2023-07-20T13:01:11;2.63;;;0.35;;
51664;SDS011;37751;52.408;12.536;2023-07-20T13:03:40;1.50;;;0.50;;
51664;SDS011;37751;52.408;12.536;2023-07-20T13:06:13;1.10;;;0.40;;
51664;SDS011;37751;52.408;12.536;2023-07-20T13:08:46;3.05;;;0.35;;
51664;SDS011;37751;52.408;12.536;2023-07-20T13:12:06;1.38;;;0.30;;
51664;SDS011;37751;52.408;12.536;2023-07-20T13:14:35;3.53;;;0.20;;
51664;SDS011;37751;52.408;12.536;2023-07-20T13:17:03;2.05;;;0.50;;
51664;SDS011;37751;52.408;12.536;2023-07-20T13:19:31;0.75;;;0.40;;
51664;SDS011;37751;52.408;12.536;2023-07-20T13:21:59;7.30;;;0.25;;
51664;SDS011;37751;52.408;12.536;2023-07-20T13:24:26;2.13;;;0.25;;
51664;SDS011;37751;52.408;12.536;2023-07-20T13:26:54;3.72;;;0.50;;
51664;SDS011;37751;52.408;12.536;2023-07-20T13:29:23;0.90;;;0.32;;
51664;SDS011;37751;52.408;12.536;2023-07-20T13:31:52;0.40;;;0.40;;
51664;SDS011;37751;52.408;12.536;2023-07-20T13:34:22;0.38;;;0.30;;
51664;SDS011;37751;52.408;12.536;2023-07-20T13:36:50;3.97;;;0.40;;
51664;SDS011;37751;52.408;12.536;2023-07-20T13:39:18;3.33;;;0.30;;
51664;SDS011;37751;52.408;12.536;2023-07-20T13:41:46;0.60;;;0.50;;
51664;SDS011;37751;52.408;12.536;2023-07-20T13:44:14;3.50;;;0.40;;
51664;SDS011;37751;52.408;12.536;2023-07-20T13:46:48;0.75;;;0.40;;
51664;SDS011;37751;52.408;12.536;2023-07-20T13:49:17;0.80;;;0.40;;
51664;SDS011;37751;52.408;12.536;2023-07-20T13:51:50;2.10;;;0.40;;
51664;SDS011;37751;52.408;12.536;2023-07-20T13:54:38;3.42;;;0.40;;
51664;SDS011;37751;52.408;12.536;2023-07-20T13:57:15;2.88;;;0.40;;
51664;SDS011;37751;52.408;12.536;2023-07-20T13:59:43;0.73;;;0.40;;
51664;SDS011;37751;52.408;12.536;2023-07-20T14:02:20;2.20;;;0.40;;
51664;SDS011;37751;52.408;12.536;2023-07-20T14:05:01;0.52;;;0.30;;
51664;SDS011;37751;52.408;12.536;2023-07-20T14:07:32;0.65;;;0.47;;
51664;SDS011;37751;52.408;12.536;2023-07-20T14:10:00;1.20;;;0.30;;
51664;SDS011;37751;52.408;12.536;2023-07-20T14:12:31;2.22;;;0.70;;
51664;SDS011;37751;52.408;12.536;2023-07-20T14:14:59;1.60;;;0.50;;
51664;SDS011;37751;52.408;12.536;2023-07-20T14:17:26;2.25;;;0.32;;
51664;SDS011;37751;52.408;12.536;2023-07-20T14:19:54;0.73;;;0.40;;
51664;SDS011;37751;52.408;12.536;2023-07-20T14:22:22;2.08;;;0.50;;
51664;SDS011;37751;52.408;12.536;2023-07-20T14:24:53;0.82;;;0.40;;
51664;SDS011;37751;52.408;12.536;2023-07-20T14:27:22;2.58;;;0.30;;
51664;SDS011;37751;52.408;12.536;2023-07-20T14:29:50;1.10;;;0.40;;
51664;SDS011;37751;52.408;12.536;2023-07-20T14:32:18;0.47;;;0.38;;
51664;SDS011;37751;52.408;12.536;2023-07-20T14:34:46;1.20;;;0.40;;
51664;SDS011;37751;52.408;12.536;2023-07-20T14:37:14;2.03;;;0.40;;
51664;SDS011;37751;52.408;12.536;2023-07-20T14:39:42;0.88;;;0.30;;
51664;SDS011;37751;52.408;12.536;2023-07-20T14:42:10;1.70;;;0.65;;
51664;SDS011;37751;52.408;12.536;2023-07-20T14:44:37;0.73;;;0.40;;
51664;SDS011;37751;52.408;12.536;2023-07-20T14:47:05;3.80;;;0.40;;
51664;SDS011;37751;52.408;12.536;2023-07-20T14:49:41;0.85;;;0.25;;
51664;SDS011;37751;52.408;12.536;2023-07-20T14:52:09;0.75;;;0.40;;
51664;SDS011;37751;52.408;12.536;2023-07-20T14:54:40;0.50;;;0.40;;
51664;SDS011;37751;52.408;12.536;2023-07-20T14:57:08;0.68;;;0.40;;
51664;SDS011;37751;52.408;12.536;2023-07-20T14:59:41;1.77;;;0.63;;
51664;SDS011;37751;52.408;12.536;2023-07-20T15:02:09;1.90;;;0.50;;
51664;SDS011;37751;52.408;12.536;2023-07-20T15:04:45;1.95;;;0.50;;
51664;SDS011;37751;52.408;12.536;2023-07-20T15:07:18;1.42;;;0.60;;
51664;SDS011;37751;52.408;12.536;2023-07-20T15:09:51;0.85;;;0.40;;